createdAt,value
2023-02-09T00:01:24.420Z,2.33
2023-02-09T00:03:51.532Z,2.08
2023-02-09T00:06:19.784Z,2.55
2023-02-09T00:08:46.759Z,2.61
2023-02-09T00:11:19.516Z,2.60
2023-02-09T00:13:45.987Z,2.42
2023-02-09T00:16:12.935Z,2.47
2023-02-09T00:18:39.772Z,2.34
2023-02-09T00:21:09.534Z,2.19
2023-02-09T00:23:39.642Z,2.43
2023-02-09T00:26:09.464Z,2.49
2023-02-09T00:28:36.761Z,2.54
2023-02-09T00:31:08.723Z,2.43
2023-02-09T00:33:35.726Z,2.43
2023-02-09T00:36:04.872Z,1.79
2023-02-09T00:38:31.583Z,2.14
2023-02-09T00:40:58.072Z,2.13
2023-02-09T00:43:24.538Z,1.91
2023-02-09T00:45:51.104Z,2.22
2023-02-09T00:48:17.626Z,2.41
2023-02-09T00:50:44.568Z,2.15
2023-02-09T00:53:11.351Z,2.46
2023-02-09T00:55:38.007Z,2.45
2023-02-09T00:58:04.482Z,2.03
2023-02-09T01:00:30.975Z,2.37
2023-02-09T01:02:57.779Z,1.99
2023-02-09T01:05:24.371Z,2.03
2023-02-09T01:07:51.298Z,2.04
2023-02-09T01:10:17.858Z,1.98
2023-02-09T01:12:44.890Z,2.09
2023-02-09T01:15:12.172Z,2.11
2023-02-09T01:17:38.772Z,1.59
2023-02-09T01:20:07.316Z,1.41
2023-02-09T01:22:34.000Z,1.31
2023-02-09T01:25:00.521Z,1.55
2023-02-09T01:27:26.986Z,1.69
2023-02-09T01:29:53.466Z,1.46
2023-02-09T01:32:19.940Z,1.53
2023-02-09T01:34:50.645Z,1.34
2023-02-09T01:37:17.319Z,1.41
2023-02-09T01:39:43.896Z,1.42
2023-02-09T01:42:18.955Z,1.40
2023-02-09T01:44:45.348Z,1.78
2023-02-09T01:47:16.849Z,1.32
2023-02-09T01:49:44.995Z,1.62
2023-02-09T01:52:24.216Z,1.75
2023-02-09T01:55:02.953Z,0.87
2023-02-09T01:57:35.353Z,1.37
2023-02-09T02:00:07.878Z,1.13
2023-02-09T02:02:35.162Z,1.30
2023-02-09T02:05:02.357Z,1.33
2023-02-09T02:07:44.253Z,1.22
2023-02-09T02:10:11.297Z,1.37
2023-02-09T02:12:38.594Z,1.33
2023-02-09T02:15:05.995Z,1.33
2023-02-09T02:18:01.203Z,1.11
2023-02-09T02:20:59.392Z,1.27
2023-02-09T02:23:39.805Z,1.28
2023-02-09T02:26:20.699Z,1.24
2023-02-09T02:29:09.800Z,1.28
2023-02-09T02:31:36.268Z,1.29
2023-02-09T02:34:12.273Z,1.21
2023-02-09T02:37:01.796Z,1.43
2023-02-09T02:39:39.537Z,1.65
2023-02-09T02:42:29.721Z,1.73
2023-02-09T02:45:13.737Z,1.64
2023-02-09T02:47:42.718Z,1.78
2023-02-09T02:50:13.895Z,1.67
2023-02-09T02:52:44.007Z,1.38
2023-02-09T02:55:14.673Z,1.53
2023-02-09T02:57:44.561Z,1.62
2023-02-09T03:00:18.269Z,1.27
2023-02-09T03:02:51.735Z,1.24
2023-02-09T03:05:19.526Z,0.88
2023-02-09T03:07:46.057Z,1.18
2023-02-09T03:10:34.543Z,0.43
2023-02-09T03:13:07.924Z,1.06
2023-02-09T03:21:42.697Z,0.75
2023-02-09T03:24:28.133Z,1.14
2023-02-09T03:27:04.905Z,1.25
2023-02-09T03:29:31.757Z,1.16
2023-02-09T03:31:58.568Z,1.40
2023-02-09T03:34:26.620Z,1.05
2023-02-09T03:36:55.054Z,1.28
2023-02-09T03:39:22.124Z,1.40
2023-02-09T03:41:48.756Z,1.55
2023-02-09T03:44:27.354Z,1.52
2023-02-09T03:46:59.773Z,1.04
2023-02-09T03:49:28.131Z,1.30
2023-02-09T03:51:55.060Z,1.36
2023-02-09T03:54:21.745Z,1.83
2023-02-09T03:56:48.595Z,1.37
2023-02-09T03:59:15.116Z,1.66
2023-02-09T04:01:41.660Z,1.95
2023-02-09T04:04:08.690Z,1.81
2023-02-09T04:06:35.300Z,2.04
2023-02-09T04:09:03.557Z,1.98
2023-02-09T04:11:30.293Z,1.72
2023-02-09T04:13:57.335Z,1.87
2023-02-09T04:16:24.157Z,1.84
2023-02-09T04:18:50.891Z,1.80
2023-02-09T04:21:17.547Z,2.01
2023-02-09T04:23:44.125Z,1.90
2023-02-09T04:26:10.833Z,1.65
2023-02-09T04:28:37.341Z,1.86
2023-02-09T04:31:04.269Z,2.03
2023-02-09T04:33:31.230Z,2.03
2023-02-09T04:35:58.124Z,2.17
2023-02-09T04:38:25.943Z,1.98
2023-02-09T04:40:54.070Z,1.72
2023-02-09T04:43:20.881Z,1.30
2023-02-09T04:45:47.463Z,1.28
2023-02-09T04:48:23.424Z,0.88
2023-02-09T04:50:50.228Z,1.11
2023-02-09T04:53:17.084Z,0.95
2023-02-09T04:55:46.016Z,1.30
2023-02-09T04:58:33.214Z,0.95
2023-02-09T05:00:59.905Z,1.34
2023-02-09T05:03:26.568Z,1.58
2023-02-09T05:06:03.361Z,0.80
2023-02-09T05:08:30.241Z,1.34
2023-02-09T05:10:57.161Z,1.09
2023-02-09T05:13:25.608Z,1.74
2023-02-09T05:15:52.885Z,1.21
2023-02-09T05:18:19.643Z,1.31
2023-02-09T05:20:47.726Z,0.94
2023-02-09T05:23:14.489Z,1.10
2023-02-09T05:25:41.829Z,0.51
2023-02-09T05:28:08.912Z,0.90
2023-02-09T05:30:35.453Z,0.30
2023-02-09T05:33:03.177Z,0.80
2023-02-09T05:35:29.944Z,0.68
2023-02-09T05:37:56.785Z,0.58
2023-02-09T05:40:23.533Z,0.77
2023-02-09T05:42:50.080Z,0.69
2023-02-09T05:45:16.723Z,0.55
2023-02-09T05:47:44.093Z,0.93
2023-02-09T05:50:10.807Z,0.75
2023-02-09T05:52:37.320Z,1.16
2023-02-09T05:55:04.187Z,1.52
2023-02-09T05:57:30.767Z,1.13
2023-02-09T05:59:57.267Z,1.57
2023-02-09T06:02:23.805Z,0.60
2023-02-09T06:04:50.316Z,1.25
2023-02-09T06:07:16.851Z,1.14
2023-02-09T06:09:43.397Z,1.22
2023-02-09T06:12:09.952Z,0.88
2023-02-09T06:14:36.510Z,0.72
2023-02-09T06:17:02.979Z,0.96
2023-02-09T06:19:30.686Z,1.22
2023-02-09T06:21:57.279Z,1.03
2023-02-09T06:24:24.155Z,0.98
2023-02-09T06:26:50.652Z,0.79
2023-02-09T06:29:17.262Z,1.35
2023-02-09T06:31:44.147Z,1.12
2023-02-09T06:34:10.804Z,1.53
2023-02-09T06:36:37.295Z,1.21
2023-02-09T06:39:08.131Z,1.51
2023-02-09T06:41:34.800Z,1.46
2023-02-09T06:44:01.299Z,1.40
2023-02-09T06:46:28.684Z,1.81
2023-02-09T06:48:55.641Z,1.01
2023-02-09T06:51:22.325Z,1.23
2023-02-09T06:53:49.219Z,1.83
2023-02-09T06:56:16.046Z,1.91
2023-02-09T06:58:42.704Z,1.90
2023-02-09T07:01:12.769Z,2.02
2023-02-09T07:03:39.367Z,2.58
2023-02-09T07:06:11.888Z,2.18
2023-02-09T07:08:38.760Z,2.48
2023-02-09T07:11:08.549Z,2.47
2023-02-09T07:13:35.678Z,2.73
2023-02-09T07:16:03.837Z,2.53
2023-02-09T07:18:30.728Z,2.88
2023-02-09T07:21:08.724Z,2.78
2023-02-09T07:23:36.222Z,2.80
2023-02-09T07:26:08.293Z,3.11
2023-02-09T07:28:36.278Z,3.24
2023-02-09T07:31:05.190Z,3.43
2023-02-09T07:33:32.196Z,3.40
2023-02-09T07:35:59.238Z,2.98
2023-02-09T07:38:25.956Z,2.78
2023-02-09T07:40:53.221Z,3.26
2023-02-09T07:43:20.017Z,3.17
2023-02-09T07:45:46.954Z,2.48
2023-02-09T07:48:13.693Z,2.37
2023-02-09T07:50:40.674Z,2.06
2023-02-09T07:53:07.729Z,2.14
2023-02-09T07:55:34.328Z,1.73
2023-02-09T07:58:00.967Z,2.46
2023-02-09T08:00:27.625Z,3.45
2023-02-09T08:02:54.815Z,3.30
2023-02-09T08:05:27.158Z,3.10
2023-02-09T08:07:53.821Z,2.73
2023-02-09T08:10:20.423Z,3.09
2023-02-09T08:13:02.766Z,3.44
2023-02-09T08:15:42.546Z,3.93
2023-02-09T08:18:14.913Z,4.40
2023-02-09T08:20:42.503Z,4.30
2023-02-09T08:23:22.034Z,3.92
2023-02-09T08:25:51.464Z,3.54
2023-02-09T08:28:19.492Z,3.45
2023-02-09T08:30:47.225Z,3.11
2023-02-09T08:33:16.978Z,3.15
2023-02-09T08:35:43.981Z,3.72
2023-02-09T08:38:10.789Z,4.12
2023-02-09T08:40:41.451Z,4.94
2023-02-09T08:43:08.678Z,4.47
2023-02-09T08:45:37.050Z,5.04
2023-02-09T08:48:04.324Z,5.30
2023-02-09T08:50:30.848Z,5.38
2023-02-09T08:52:58.009Z,6.01
2023-02-09T08:55:24.753Z,6.21
2023-02-09T08:57:51.602Z,6.16
2023-02-09T09:00:18.617Z,7.08
2023-02-09T09:02:45.290Z,7.28
2023-02-09T09:05:12.046Z,7.47
2023-02-09T09:07:38.701Z,7.91
2023-02-09T09:10:05.945Z,8.31
2023-02-09T09:12:32.655Z,7.81
2023-02-09T09:14:59.326Z,7.31
2023-02-09T09:17:26.815Z,7.26
2023-02-09T09:19:55.863Z,7.50
2023-02-09T09:22:23.410Z,7.13
2023-02-09T09:24:50.000Z,8.21
2023-02-09T09:27:17.153Z,8.99
2023-02-09T09:29:43.918Z,9.09
2023-02-09T09:32:14.026Z,9.18
2023-02-09T09:34:41.242Z,9.93
2023-02-09T09:37:07.836Z,10.88
2023-02-09T09:39:34.460Z,10.02
2023-02-09T09:42:01.212Z,10.47
2023-02-09T09:44:31.924Z,11.59
2023-02-09T09:47:07.499Z,11.12
2023-02-09T09:49:35.070Z,13.35
2023-02-09T09:52:21.148Z,16.20
2023-02-09T09:54:47.687Z,19.37
2023-02-09T09:57:27.024Z,19.05
2023-02-09T09:59:54.931Z,18.33
2023-02-09T10:02:23.549Z,19.58
2023-02-09T10:04:50.398Z,20.63
2023-02-09T10:07:20.799Z,22.81
2023-02-09T10:09:56.030Z,21.20
2023-02-09T10:12:38.769Z,22.82
2023-02-09T10:15:27.905Z,20.22
2023-02-09T10:17:58.446Z,20.84
2023-02-09T10:20:44.418Z,21.81
2023-02-09T10:23:20.161Z,22.54
2023-02-09T10:26:16.872Z,22.65
2023-02-09T10:29:12.452Z,21.33
2023-02-09T10:31:42.598Z,21.50
2023-02-09T10:34:20.853Z,21.08
2023-02-09T10:36:51.951Z,20.05
2023-02-09T10:39:25.822Z,16.45
2023-02-09T10:41:54.681Z,18.32
2023-02-09T10:44:26.486Z,16.59
2023-02-09T10:47:27.117Z,18.75
2023-02-09T10:50:04.607Z,18.36
2023-02-09T10:52:34.215Z,20.85
2023-02-09T10:55:12.125Z,22.41
2023-02-09T10:57:38.929Z,21.25
2023-02-09T11:00:17.751Z,21.66
2023-02-09T11:02:54.302Z,19.88
2023-02-09T11:05:21.149Z,17.86
2023-02-09T11:08:10.951Z,19.65
2023-02-09T11:10:42.248Z,18.98
2023-02-09T11:13:21.712Z,21.85
2023-02-09T11:16:23.632Z,21.36
2023-02-09T11:19:07.197Z,17.72
2023-02-09T11:22:07.498Z,22.45
2023-02-09T11:24:42.934Z,20.74
2023-02-09T11:27:31.123Z,21.03
2023-02-09T11:30:17.492Z,22.27
2023-02-09T11:32:47.708Z,20.85
2023-02-09T11:35:18.982Z,19.91
2023-02-09T11:37:45.482Z,22.10
2023-02-09T11:40:22.370Z,21.88
2023-02-09T11:43:24.028Z,19.66
2023-02-09T11:45:52.543Z,18.91
2023-02-09T11:48:35.497Z,19.04
2023-02-09T11:51:12.011Z,20.92
2023-02-09T11:53:41.413Z,19.25
2023-02-09T11:56:11.090Z,20.86
2023-02-09T11:58:43.642Z,17.14
2023-02-09T12:01:16.810Z,18.41
2023-02-09T12:04:12.339Z,17.53
2023-02-09T12:06:43.357Z,20.88
2023-02-09T12:09:12.038Z,17.79
2023-02-09T12:11:59.912Z,18.50
2023-02-09T12:14:46.574Z,18.90
2023-02-09T12:17:20.892Z,17.84
2023-02-09T12:19:56.615Z,20.21
2023-02-09T12:22:35.481Z,22.21
2023-02-09T12:25:17.414Z,21.00
2023-02-09T12:28:17.449Z,22.57
2023-02-09T12:30:44.594Z,21.24
2023-02-09T12:33:23.384Z,20.36
2023-02-09T12:36:21.637Z,17.51
2023-02-09T12:38:55.993Z,19.63
2023-02-09T12:41:28.557Z,18.79
2023-02-09T12:44:10.404Z,18.17
2023-02-09T12:46:53.001Z,15.92
2023-02-09T12:49:28.773Z,16.32
2023-02-09T12:52:01.315Z,14.79
2023-02-09T12:54:48.181Z,13.15
2023-02-09T12:57:14.707Z,13.27
2023-02-09T12:59:55.140Z,12.06
2023-02-09T13:02:32.493Z,12.13
2023-02-09T13:05:19.392Z,13.09
2023-02-09T13:07:53.492Z,12.05
2023-02-09T13:10:37.776Z,11.00
2023-02-09T13:13:10.597Z,10.97
2023-02-09T13:15:55.379Z,10.92
2023-02-09T13:18:31.801Z,10.85
2023-02-09T13:21:33.816Z,10.23
2023-02-09T13:24:23.718Z,10.69
2023-02-09T13:26:51.588Z,10.56
2023-02-09T13:29:31.069Z,10.72
2023-02-09T13:32:16.061Z,10.72
2023-02-09T13:34:54.786Z,10.50
2023-02-09T13:37:50.313Z,10.71
2023-02-09T13:40:17.613Z,10.23
2023-02-09T13:42:58.747Z,10.41
2023-02-09T13:45:26.934Z,10.03
2023-02-09T13:47:55.403Z,9.88
2023-02-09T13:50:28.293Z,10.03
2023-02-09T13:53:09.139Z,10.12
2023-02-09T13:55:40.975Z,10.10
2023-02-09T13:58:09.464Z,9.52
2023-02-09T14:00:42.956Z,9.63
2023-02-09T14:03:16.834Z,10.64
2023-02-09T14:05:49.367Z,10.32
2023-02-09T14:08:16.757Z,9.70
2023-02-09T14:10:45.920Z,10.56
2023-02-09T14:13:26.988Z,10.17
2023-02-09T14:16:09.402Z,10.54
2023-02-09T14:18:58.365Z,10.83
2023-02-09T14:21:50.069Z,11.16
2023-02-09T14:24:19.653Z,10.51
2023-02-09T14:26:55.614Z,10.37
2023-02-09T14:29:32.638Z,10.19
2023-02-09T14:32:31.930Z,9.95
2023-02-09T14:35:09.000Z,10.51
2023-02-09T14:37:37.460Z,9.93
2023-02-09T14:40:07.169Z,9.63
2023-02-09T14:42:39.164Z,9.96
2023-02-09T14:45:25.950Z,10.00
2023-02-09T14:47:52.504Z,9.37
2023-02-09T14:50:21.987Z,9.01
2023-02-09T14:52:52.145Z,8.95
2023-02-09T14:55:30.003Z,8.77
2023-02-09T14:57:56.788Z,8.83
2023-02-09T15:00:25.641Z,8.78
2023-02-09T15:02:53.033Z,8.71
2023-02-09T15:05:21.170Z,9.00
2023-02-09T15:07:57.956Z,8.43
2023-02-09T15:10:33.197Z,8.61
2023-02-09T15:13:01.989Z,8.45
2023-02-09T15:15:29.075Z,8.83
2023-02-09T15:17:55.981Z,8.58
2023-02-09T15:20:26.298Z,8.75
2023-02-09T15:22:53.611Z,9.33
2023-02-09T15:25:20.400Z,8.86
2023-02-09T15:27:52.046Z,8.43
2023-02-09T15:30:30.902Z,8.75
2023-02-09T15:32:57.856Z,8.54
2023-02-09T15:35:26.125Z,9.23
2023-02-09T15:37:55.318Z,8.59
2023-02-09T15:40:49.673Z,8.43
2023-02-09T15:43:36.689Z,7.98
2023-02-09T15:46:03.891Z,8.07
2023-02-09T15:48:32.199Z,8.44
2023-02-09T15:50:59.182Z,8.30
2023-02-09T15:53:26.803Z,8.09
2023-02-09T15:55:54.468Z,8.46
2023-02-09T15:58:29.105Z,8.20
2023-02-09T16:01:01.552Z,8.51
2023-02-09T16:03:28.128Z,8.46
2023-02-09T16:06:01.833Z,8.48
2023-02-09T16:08:32.465Z,8.67
2023-02-09T16:10:59.851Z,8.17
2023-02-09T16:13:26.764Z,8.43
2023-02-09T16:15:53.632Z,8.37
2023-02-09T16:18:20.307Z,8.25
2023-02-09T16:20:50.415Z,7.78
2023-02-09T16:23:21.248Z,7.66
2023-02-09T16:25:50.755Z,8.14
2023-02-09T16:28:17.667Z,7.57
2023-02-09T16:30:55.873Z,7.74
2023-02-09T16:33:24.725Z,8.00
2023-02-09T16:35:57.217Z,7.95
2023-02-09T16:38:25.058Z,8.21
2023-02-09T16:40:52.682Z,8.22
2023-02-09T16:43:20.027Z,8.20
2023-02-09T16:46:02.392Z,8.03
2023-02-09T16:48:31.889Z,7.71
2023-02-09T16:50:58.825Z,7.44
2023-02-09T16:53:38.270Z,7.41
2023-02-09T16:56:10.019Z,7.50
2023-02-09T16:58:37.152Z,7.59
2023-02-09T17:01:04.130Z,7.60
2023-02-09T17:03:36.200Z,7.53
2023-02-09T17:06:03.221Z,7.41
2023-02-09T17:08:32.701Z,7.21
2023-02-09T17:11:01.280Z,7.01
2023-02-09T17:13:29.062Z,6.79
2023-02-09T17:15:59.413Z,7.04
2023-02-09T17:18:29.955Z,6.55
2023-02-09T17:21:05.320Z,6.32
2023-02-09T17:23:32.095Z,6.44
2023-02-09T17:25:58.968Z,6.35
2023-02-09T17:28:26.760Z,6.44
2023-02-09T17:30:57.420Z,6.29
2023-02-09T17:33:32.572Z,5.85
2023-02-09T17:38:47.069Z,5.99
2023-02-09T17:41:17.109Z,5.47
2023-02-09T17:43:44.127Z,5.31
2023-02-09T17:46:12.665Z,5.67
2023-02-09T17:48:39.505Z,5.54
2023-02-09T17:51:09.492Z,5.64
2023-02-09T17:53:36.374Z,4.87
2023-02-09T17:56:03.068Z,5.10
2023-02-09T17:58:29.663Z,4.94
2023-02-09T18:00:56.750Z,4.82
2023-02-09T18:03:25.895Z,5.21
2023-02-09T18:06:01.671Z,5.09
2023-02-09T18:08:28.459Z,3.97
2023-02-09T18:10:58.578Z,4.91
2023-02-09T18:13:27.028Z,4.83
2023-02-09T18:15:53.585Z,4.59
2023-02-09T18:18:22.023Z,4.61
2023-02-09T18:20:49.675Z,4.82
2023-02-09T18:23:16.643Z,4.41
2023-02-09T18:25:43.312Z,4.45
2023-02-09T18:28:09.861Z,5.00
2023-02-09T18:30:38.604Z,4.91
2023-02-09T18:33:06.801Z,4.48
2023-02-09T18:35:36.169Z,4.70
2023-02-09T18:38:04.286Z,5.05
2023-02-09T18:40:34.474Z,5.21
2023-02-09T18:43:04.328Z,5.94
2023-02-09T18:45:31.375Z,6.05
2023-02-09T18:47:58.056Z,5.77
2023-02-09T18:50:28.156Z,6.23
2023-02-09T18:52:57.251Z,5.69
2023-02-09T18:55:25.847Z,5.69
2023-02-09T18:57:52.561Z,5.97
2023-02-09T19:00:20.381Z,6.59
2023-02-09T19:02:49.563Z,5.82
2023-02-09T19:05:18.371Z,6.31
2023-02-09T19:07:47.073Z,5.67
2023-02-09T19:10:17.076Z,5.74
2023-02-09T19:12:45.261Z,5.54
2023-02-09T19:15:15.858Z,6.27
2023-02-09T19:17:42.617Z,5.92
2023-02-09T19:20:24.201Z,6.18
2023-02-09T19:22:53.652Z,6.44
2023-02-09T19:25:22.674Z,5.77
2023-02-09T19:27:49.265Z,5.82
2023-02-09T19:30:24.904Z,6.23
2023-02-09T19:32:52.790Z,6.05
2023-02-09T19:35:22.919Z,6.22
2023-02-09T19:37:54.386Z,6.18
2023-02-09T19:40:28.009Z,6.06
2023-02-09T19:42:56.150Z,6.57
2023-02-09T19:45:23.549Z,6.60
2023-02-09T19:47:50.337Z,6.23
2023-02-09T19:50:17.555Z,5.66
2023-02-09T19:52:47.444Z,5.79
2023-02-09T19:55:14.917Z,6.25
2023-02-09T19:57:42.693Z,6.25
2023-02-09T20:00:14.716Z,6.52
2023-02-09T20:02:41.473Z,6.77
2023-02-09T20:05:08.515Z,6.88
2023-02-09T20:07:35.162Z,6.86
2023-02-09T20:10:02.058Z,6.81
2023-02-09T20:12:28.723Z,6.96
2023-02-09T20:14:55.285Z,6.64
2023-02-09T20:17:22.536Z,6.53
2023-02-09T20:19:49.178Z,6.54
2023-02-09T20:22:15.782Z,6.44
2023-02-09T20:24:44.109Z,5.41
2023-02-09T20:27:11.240Z,6.15
2023-02-09T20:29:39.296Z,5.94
2023-02-09T20:32:06.251Z,5.81
2023-02-09T20:34:33.175Z,5.53
2023-02-09T20:36:59.804Z,5.93
2023-02-09T20:39:26.354Z,5.21
2023-02-09T20:42:16.564Z,5.02
2023-02-09T20:45:02.266Z,5.25
2023-02-09T20:47:30.105Z,4.88
2023-02-09T20:49:59.904Z,4.76
2023-02-09T20:52:28.703Z,4.74
2023-02-09T20:54:55.843Z,4.96
2023-02-09T20:57:29.276Z,4.85
2023-02-09T20:59:59.754Z,4.93
2023-02-09T21:02:27.144Z,4.93
2023-02-09T21:04:55.154Z,5.15
2023-02-09T21:07:21.801Z,5.03
2023-02-09T21:09:48.394Z,5.08
2023-02-09T21:12:15.025Z,5.65
2023-02-09T21:14:45.035Z,5.79
2023-02-09T21:17:12.442Z,6.14
2023-02-09T21:19:39.043Z,6.16
2023-02-09T21:22:06.251Z,5.88
2023-02-09T21:24:33.239Z,5.65
2023-02-09T21:27:02.983Z,5.53
2023-02-09T21:29:29.632Z,5.10
2023-02-09T21:31:56.476Z,5.36
2023-02-09T21:34:23.124Z,5.31
2023-02-09T21:36:49.652Z,5.85
2023-02-09T21:39:16.242Z,5.88
2023-02-09T21:42:01.354Z,6.03
2023-02-09T21:44:28.584Z,6.12
2023-02-09T21:46:55.222Z,5.82
2023-02-09T21:49:22.181Z,5.69
2023-02-09T21:51:48.896Z,5.57
2023-02-09T21:54:16.796Z,5.45
2023-02-09T21:56:43.414Z,5.43
2023-02-09T21:59:10.335Z,5.21
2023-02-09T22:01:37.561Z,5.09
2023-02-09T22:04:04.501Z,5.07
2023-02-09T22:06:31.501Z,5.15
2023-02-09T22:09:00.452Z,5.28
2023-02-09T22:11:27.180Z,5.10
2023-02-09T22:13:53.951Z,5.28
2023-02-09T22:16:22.355Z,5.38
2023-02-09T22:18:49.283Z,5.28
2023-02-09T22:21:16.601Z,5.42
2023-02-09T22:23:43.355Z,5.48
2023-02-09T22:26:10.598Z,5.41
2023-02-09T22:28:37.662Z,5.41
2023-02-09T22:31:13.135Z,5.37
2023-02-09T22:33:39.902Z,5.42
2023-02-09T22:36:08.164Z,5.37
2023-02-09T22:38:35.989Z,5.25
2023-02-09T22:41:07.509Z,5.29
2023-02-09T22:43:35.034Z,5.09
2023-02-09T22:46:01.796Z,5.45
2023-02-09T22:48:39.378Z,5.49
2023-02-09T22:51:06.459Z,5.51
2023-02-09T22:53:33.828Z,5.68
2023-02-09T22:56:04.847Z,5.74
2023-02-09T22:58:31.712Z,6.12
2023-02-09T23:00:58.246Z,5.90
2023-02-09T23:03:24.870Z,5.82
2023-02-09T23:05:51.525Z,6.25
2023-02-09T23:08:18.030Z,6.23
2023-02-09T23:10:44.538Z,6.15
2023-02-09T23:13:11.236Z,6.30
2023-02-09T23:15:38.008Z,6.61
2023-02-09T23:18:04.752Z,6.84
2023-02-09T23:20:31.294Z,7.20
2023-02-09T23:23:01.390Z,7.20
2023-02-09T23:25:28.599Z,7.13
2023-02-09T23:27:55.230Z,7.53
2023-02-09T23:30:21.876Z,7.66
2023-02-09T23:32:49.355Z,7.26
2023-02-09T23:35:17.554Z,6.91
2023-02-09T23:37:44.173Z,7.04
2023-02-09T23:40:11.196Z,7.41
2023-02-09T23:42:37.780Z,7.39
2023-02-09T23:45:06.380Z,7.44
2023-02-09T23:47:33.027Z,6.92
2023-02-09T23:49:59.508Z,7.33
2023-02-09T23:52:26.072Z,7.60
2023-02-09T23:54:52.630Z,7.79
2023-02-09T23:57:20.170Z,7.89
2023-02-09T23:59:46.891Z,7.27
